createdAt,value
2019-01-26T00:00:52.279Z,-5.84
2019-01-26T00:03:23.279Z,-5.87
2019-01-26T00:05:54.575Z,-5.88
2019-01-26T00:08:25.541Z,-5.84
2019-01-26T00:10:56.902Z,-5.79
2019-01-26T00:13:28.001Z,-5.82
2019-01-26T00:16:00.131Z,-5.79
2019-01-26T00:18:31.199Z,-5.80
2019-01-26T00:21:03.826Z,-5.83
2019-01-26T00:23:35.101Z,-5.81
2019-01-26T00:26:06.415Z,-5.78
2019-01-26T00:28:37.880Z,-5.79
2019-01-26T00:31:09.024Z,-5.83
2019-01-26T00:33:43.229Z,-5.81
2019-01-26T00:36:14.109Z,-5.79
2019-01-26T00:38:45.409Z,-5.75
2019-01-26T00:41:16.622Z,-5.80
2019-01-26T00:43:47.991Z,-5.71
2019-01-26T00:46:20.056Z,-5.70
2019-01-26T00:48:52.344Z,-5.68
2019-01-26T00:51:23.387Z,-5.69
2019-01-26T00:53:54.899Z,-5.65
2019-01-26T00:56:25.841Z,-5.66
2019-01-26T00:58:57.145Z,-5.67
2019-01-26T01:01:28.184Z,-5.68
2019-01-26T01:03:59.332Z,-5.68
2019-01-26T01:06:30.491Z,-5.67
2019-01-26T01:09:02.484Z,-5.69
2019-01-26T01:11:34.903Z,-5.70
2019-01-26T01:14:06.641Z,-5.65
2019-01-26T01:16:38.949Z,-5.69
2019-01-26T01:19:10.211Z,-5.72
2019-01-26T01:21:41.497Z,-5.59
2019-01-26T01:24:12.650Z,-5.59
2019-01-26T01:26:45.092Z,-5.52
2019-01-26T01:29:16.401Z,-5.56
2019-01-26T01:31:48.265Z,-5.50
2019-01-26T01:34:19.445Z,-5.52
2019-01-26T01:36:50.699Z,-5.67
2019-01-26T01:39:21.929Z,-5.65
2019-01-26T01:41:53.990Z,-5.61
2019-01-26T01:44:25.045Z,-5.64
2019-01-26T01:46:56.106Z,-5.63
2019-01-26T01:49:27.408Z,-5.68
2019-01-26T01:51:58.565Z,-5.64
2019-01-26T01:54:29.660Z,-5.63
2019-01-26T01:57:00.821Z,-5.63
2019-01-26T01:59:32.308Z,-5.59
2019-01-26T02:02:03.378Z,-5.59
2019-01-26T02:04:34.438Z,-5.52
2019-01-26T02:07:06.931Z,-5.56
2019-01-26T02:09:38.437Z,-5.54
2019-01-26T02:12:09.941Z,-5.57
2019-01-26T02:14:41.049Z,-5.55
2019-01-26T02:17:13.189Z,-5.52
2019-01-26T02:19:45.320Z,-5.47
2019-01-26T02:22:16.700Z,-5.51
2019-01-26T02:24:47.742Z,-5.49
2019-01-26T02:27:18.930Z,-5.45
2019-01-26T02:29:52.493Z,-5.47
2019-01-26T02:32:23.838Z,-5.43
2019-01-26T02:34:54.845Z,-5.47
2019-01-26T02:37:26.318Z,-5.47
2019-01-26T02:39:57.473Z,-5.47
2019-01-26T02:42:28.704Z,-5.58
2019-01-26T02:45:00.181Z,-5.62
2019-01-26T02:47:31.485Z,-5.62
2019-01-26T02:50:03.065Z,-5.61
2019-01-26T02:52:34.631Z,-5.60
2019-01-26T02:55:06.646Z,-5.56
2019-01-26T02:57:37.745Z,-5.57
2019-01-26T03:00:13.659Z,-5.58
2019-01-26T03:02:44.980Z,-5.67
2019-01-26T03:05:17.334Z,-5.57
2019-01-26T03:07:48.498Z,-5.60
2019-01-26T03:10:22.926Z,-5.53
2019-01-26T03:12:55.058Z,-5.51
2019-01-26T03:15:26.723Z,-5.49
2019-01-26T03:17:59.545Z,-5.50
2019-01-26T03:20:31.293Z,-5.40
2019-01-26T03:23:02.631Z,-5.34
2019-01-26T03:25:34.322Z,-5.45
2019-01-26T03:28:05.669Z,-5.49
2019-01-26T03:30:36.673Z,-5.44
2019-01-26T03:33:08.253Z,-5.41
2019-01-26T03:35:39.568Z,-5.41
2019-01-26T03:38:10.765Z,-5.29
2019-01-26T03:40:43.616Z,-5.22
2019-01-26T03:43:17.048Z,-5.22
2019-01-26T03:45:49.257Z,-5.21
2019-01-26T03:48:20.449Z,-5.22
2019-01-26T03:50:53.724Z,-5.16
2019-01-26T03:53:24.969Z,-5.22
2019-01-26T03:55:56.451Z,-5.19
2019-01-26T03:58:28.890Z,-5.15
2019-01-26T04:01:00.457Z,-5.09
2019-01-26T04:03:31.689Z,-5.12
2019-01-26T04:06:03.526Z,-5.07
2019-01-26T04:08:34.785Z,-4.98
2019-01-26T04:11:05.971Z,-4.96
2019-01-26T04:13:37.256Z,-4.91
2019-01-26T04:16:09.059Z,-4.93
2019-01-26T04:18:40.426Z,-5.05
2019-01-26T04:21:11.421Z,-4.95
2019-01-26T04:23:42.456Z,-4.92
2019-01-26T04:26:13.438Z,-4.89
2019-01-26T04:28:44.616Z,-4.90
2019-01-26T04:31:16.386Z,-4.82
2019-01-26T04:33:51.184Z,-4.78
2019-01-26T04:36:22.314Z,-4.77
2019-01-26T04:38:53.415Z,-4.77
2019-01-26T04:41:24.452Z,-4.71
2019-01-26T04:43:55.545Z,-4.81
2019-01-26T04:46:26.539Z,-4.81
2019-01-26T04:48:57.502Z,-4.79
2019-01-26T04:51:28.832Z,-4.77
2019-01-26T04:54:00.934Z,-4.71
2019-01-26T04:56:32.061Z,-4.70
2019-01-26T04:59:03.469Z,-4.66
2019-01-26T05:01:34.838Z,-4.66
2019-01-26T05:04:06.348Z,-4.63
2019-01-26T05:06:37.690Z,-4.62
2019-01-26T05:09:10.656Z,-4.63
2019-01-26T05:11:41.950Z,-4.58
2019-01-26T05:14:13.794Z,-4.56
2019-01-26T05:16:46.351Z,-4.58
2019-01-26T05:19:17.547Z,-4.73
2019-01-26T05:21:48.548Z,-4.65
2019-01-26T05:24:21.313Z,-4.62
2019-01-26T05:26:52.609Z,-4.61
2019-01-26T05:29:23.720Z,-4.60
2019-01-26T05:31:55.449Z,-4.63
2019-01-26T05:34:27.134Z,-4.61
2019-01-26T05:36:58.276Z,-4.59
2019-01-26T05:39:31.135Z,-4.58
2019-01-26T05:42:02.169Z,-4.58
2019-01-26T05:44:34.356Z,-4.58
2019-01-26T05:47:05.487Z,-4.54
2019-01-26T05:49:36.783Z,-4.53
2019-01-26T05:52:08.608Z,-4.51
2019-01-26T05:54:40.019Z,-4.49
2019-01-26T05:57:11.116Z,-4.48
2019-01-26T05:59:42.200Z,-4.44
2019-01-26T06:02:13.374Z,-4.46
2019-01-26T06:04:44.384Z,-4.47
2019-01-26T06:07:15.629Z,-4.52
2019-01-26T06:09:46.707Z,-4.50
2019-01-26T06:12:18.022Z,-4.53
2019-01-26T06:14:49.061Z,-4.51
2019-01-26T06:17:20.462Z,-4.50
2019-01-26T06:19:52.946Z,-4.54
2019-01-26T06:22:24.704Z,-4.61
2019-01-26T06:24:56.032Z,-4.63
2019-01-26T06:27:27.251Z,-4.56
2019-01-26T06:29:58.423Z,-4.53
2019-01-26T06:32:30.797Z,-4.56
2019-01-26T06:35:01.814Z,-4.53
2019-01-26T06:37:33.016Z,-4.52
2019-01-26T06:40:05.533Z,-4.49
2019-01-26T06:42:36.879Z,-4.43
2019-01-26T06:45:09.078Z,-4.49
2019-01-26T06:47:40.332Z,-4.42
2019-01-26T06:50:14.735Z,-4.47
2019-01-26T06:52:47.675Z,-4.40
2019-01-26T06:55:18.931Z,-4.40
2019-01-26T06:57:51.508Z,-4.38
2019-01-26T07:00:26.204Z,-4.39
2019-01-26T07:02:57.283Z,-4.34
2019-01-26T07:05:48.263Z,-4.34
2019-01-26T07:08:21.208Z,-4.35
2019-01-26T07:10:52.627Z,-4.36
2019-01-26T07:13:23.961Z,-4.31
2019-01-26T07:15:58.696Z,-4.24
2019-01-26T07:18:31.256Z,-4.19
2019-01-26T07:21:03.122Z,-4.16
2019-01-26T07:23:34.259Z,-4.16
2019-01-26T07:26:05.674Z,-4.15
2019-01-26T07:28:36.908Z,-4.18
2019-01-26T07:31:08.143Z,-4.12
2019-01-26T07:33:39.246Z,-3.99
2019-01-26T07:36:11.172Z,-3.96
2019-01-26T07:38:42.648Z,-3.96
2019-01-26T07:41:14.922Z,-3.97
2019-01-26T07:43:46.174Z,-3.85
2019-01-26T07:46:17.645Z,-3.83
2019-01-26T07:48:48.741Z,-3.81
2019-01-26T07:51:20.196Z,-3.89
2019-01-26T07:53:51.382Z,-3.77
2019-01-26T07:56:22.672Z,-3.74
2019-01-26T07:58:53.948Z,-3.70
2019-01-26T08:01:25.286Z,-3.79
2019-01-26T08:03:57.257Z,-3.74
2019-01-26T08:06:28.235Z,-3.65
2019-01-26T08:08:59.500Z,-3.62
2019-01-26T08:11:35.493Z,-3.59
2019-01-26T08:14:08.703Z,-3.50
2019-01-26T08:16:39.960Z,-3.56
2019-01-26T08:19:11.447Z,-3.48
2019-01-26T08:21:42.667Z,-3.47
2019-01-26T08:24:14.743Z,-3.43
2019-01-26T08:26:46.249Z,-3.46
2019-01-26T08:29:19.142Z,-3.47
2019-01-26T08:31:50.915Z,-3.51
2019-01-26T08:34:22.544Z,-3.51
2019-01-26T08:36:54.048Z,-3.60
2019-01-26T08:39:25.398Z,-3.47
2019-01-26T08:41:58.243Z,-3.43
2019-01-26T08:44:29.421Z,-3.40
2019-01-26T08:47:02.249Z,-3.42
2019-01-26T08:49:33.275Z,-3.37
2019-01-26T08:52:04.910Z,-3.38
2019-01-26T08:54:36.094Z,-3.33
2019-01-26T08:57:08.691Z,-3.22
2019-01-26T08:59:39.753Z,-3.25
2019-01-26T09:02:36.023Z,-3.25
2019-01-26T09:05:10.049Z,-3.18
2019-01-26T09:07:44.431Z,-3.02
2019-01-26T09:10:16.731Z,-2.91
2019-01-26T09:12:47.886Z,-2.97
2019-01-26T09:15:19.154Z,-2.81
2019-01-26T09:17:50.219Z,-2.90
2019-01-26T09:20:21.870Z,-2.87
2019-01-26T09:22:53.147Z,-2.82
2019-01-26T09:25:25.086Z,-2.87
2019-01-26T09:27:56.766Z,-2.71
2019-01-26T09:30:28.471Z,-2.64
2019-01-26T09:32:59.815Z,-2.54
2019-01-26T09:35:30.926Z,-2.58
2019-01-26T09:38:02.335Z,-2.60
2019-01-26T09:40:33.473Z,-2.65
2019-01-26T09:43:05.149Z,-2.70
2019-01-26T09:45:36.577Z,-2.50
2019-01-26T09:48:08.045Z,-2.41
2019-01-26T09:50:39.081Z,-2.27
2019-01-26T09:53:10.710Z,-2.24
2019-01-26T09:55:42.120Z,-2.24
2019-01-26T09:58:13.528Z,-2.38
2019-01-26T10:00:45.444Z,-2.23
2019-01-26T10:03:18.108Z,-2.17
2019-01-26T10:05:49.322Z,-2.11
2019-01-26T10:08:22.730Z,-2.01
2019-01-26T10:10:55.369Z,-1.89
2019-01-26T10:13:28.247Z,-1.76
2019-01-26T10:15:59.505Z,-1.78
2019-01-26T10:18:30.950Z,-1.95
2019-01-26T10:21:02.289Z,-1.80
2019-01-26T10:23:33.769Z,-1.75
2019-01-26T10:26:04.864Z,-1.65
2019-01-26T10:28:36.393Z,-1.44
2019-01-26T10:31:07.493Z,-1.30
2019-01-26T10:33:38.795Z,-1.29
2019-01-26T10:36:28.842Z,-1.26
2019-01-26T10:39:04.015Z,-1.23
2019-01-26T10:42:07.370Z,-1.16
2019-01-26T10:44:38.838Z,-1.36
2019-01-26T10:47:09.811Z,-1.39
2019-01-26T10:49:41.166Z,-1.47
2019-01-26T10:52:12.119Z,-1.42
2019-01-26T10:54:43.196Z,-1.44
2019-01-26T10:57:14.316Z,-1.46
2019-01-26T10:59:46.405Z,-1.57
2019-01-26T11:02:18.037Z,-1.53
2019-01-26T11:04:49.974Z,-1.46
2019-01-26T11:07:21.059Z,-1.53
2019-01-26T11:09:52.064Z,-1.54
2019-01-26T11:12:23.713Z,-1.43
2019-01-26T11:14:56.320Z,-1.41
2019-01-26T11:17:27.880Z,-1.44
2019-01-26T11:19:59.089Z,-1.43
2019-01-26T11:22:30.118Z,-1.44
2019-01-26T11:25:01.455Z,-1.35
2019-01-26T11:27:32.607Z,-1.46
2019-01-26T11:30:04.909Z,-1.34
2019-01-26T11:32:36.314Z,-1.68
2019-01-26T11:35:09.218Z,-1.76
2019-01-26T11:37:40.621Z,-1.93
2019-01-26T11:40:18.792Z,-1.95
2019-01-26T11:42:49.819Z,-1.82
2019-01-26T11:45:55.062Z,-2.33
2019-01-26T11:48:32.771Z,-2.03
2019-01-26T11:51:25.673Z,-1.95
2019-01-26T11:53:57.046Z,-1.97
2019-01-26T11:56:35.932Z,-2.01
2019-01-26T11:59:08.884Z,-2.21
2019-01-26T12:01:59.773Z,-2.24
2019-01-26T12:04:46.752Z,-2.25
2019-01-26T12:07:23.370Z,-2.44
2019-01-26T12:09:54.846Z,-2.46
2019-01-26T12:12:26.374Z,-2.33
2019-01-26T12:14:57.898Z,-2.22
2019-01-26T12:17:29.196Z,-2.16
2019-01-26T12:20:01.260Z,-2.12
2019-01-26T12:22:32.609Z,-1.96
2019-01-26T12:25:04.056Z,-1.86
2019-01-26T12:27:35.490Z,-1.75
2019-01-26T12:30:07.931Z,-1.65
2019-01-26T12:32:39.442Z,-1.84
2019-01-26T12:35:12.616Z,-2.11
2019-01-26T12:37:43.912Z,-1.84
2019-01-26T12:40:15.308Z,-1.74
2019-01-26T12:42:46.807Z,-1.87
2019-01-26T12:45:19.310Z,-1.92
2019-01-26T12:47:51.667Z,-1.85
2019-01-26T12:50:24.514Z,-1.73
2019-01-26T12:52:55.814Z,-1.69
2019-01-26T12:55:26.904Z,-1.77
2019-01-26T12:57:58.044Z,-1.74
2019-01-26T13:00:29.598Z,-1.72
2019-01-26T13:03:00.857Z,-1.78
2019-01-26T13:05:31.927Z,-1.94
2019-01-26T13:08:03.769Z,-1.95
2019-01-26T13:10:38.327Z,-2.09
2019-01-26T13:13:09.735Z,-2.03
2019-01-26T13:15:42.140Z,-2.02
2019-01-26T13:18:13.830Z,-2.10
2019-01-26T13:20:46.892Z,-2.07
2019-01-26T13:23:19.310Z,-2.04
2019-01-26T13:25:51.074Z,-2.12
2019-01-26T13:28:22.467Z,-2.07
2019-01-26T13:30:53.897Z,-1.97
2019-01-26T13:33:24.968Z,-1.93
2019-01-26T13:35:56.094Z,-2.03
2019-01-26T13:38:27.460Z,-1.98
2019-01-26T13:40:58.758Z,-1.98
2019-01-26T13:43:29.736Z,-2.03
2019-01-26T13:46:02.699Z,-2.13
2019-01-26T13:48:33.694Z,-1.98
2019-01-26T13:51:12.823Z,-1.88
2019-01-26T13:53:41.047Z,-1.89
2019-01-26T13:56:12.380Z,-1.91
2019-01-26T13:58:43.374Z,-1.85
2019-01-26T14:01:14.565Z,-1.76
2019-01-26T14:03:47.654Z,-1.77
2019-01-26T14:06:19.093Z,-1.96
2019-01-26T14:08:50.132Z,-1.87
2019-01-26T14:11:21.381Z,-1.92
2019-01-26T14:13:52.728Z,-2.05
2019-01-26T14:16:24.106Z,-2.02
2019-01-26T14:18:56.858Z,-2.01
2019-01-26T14:21:27.922Z,-1.97
2019-01-26T14:23:59.406Z,-1.93
2019-01-26T14:26:30.571Z,-1.94
2019-01-26T14:29:04.735Z,-2.05
2019-01-26T14:31:36.319Z,-2.06
2019-01-26T14:34:07.819Z,-2.10
2019-01-26T14:36:38.965Z,-2.21
2019-01-26T14:39:10.698Z,-2.18
2019-01-26T14:41:41.835Z,-2.17
2019-01-26T14:44:13.367Z,-2.21
2019-01-26T14:46:45.231Z,-2.24
2019-01-26T14:49:16.539Z,-2.20
2019-01-26T14:51:47.813Z,-2.20
2019-01-26T14:54:19.148Z,-2.12
2019-01-26T14:56:50.464Z,-2.11
2019-01-26T14:59:24.100Z,-2.09
2019-01-26T15:01:56.634Z,-2.09
2019-01-26T15:04:27.769Z,-2.14
2019-01-26T15:06:58.974Z,-2.16
2019-01-26T15:09:30.341Z,-2.11
2019-01-26T15:12:01.418Z,-2.10
2019-01-26T15:14:33.520Z,-2.06
2019-01-26T15:17:05.221Z,-2.04
2019-01-26T15:19:38.430Z,-2.09
2019-01-26T15:22:10.777Z,-2.13
2019-01-26T15:24:41.772Z,-2.23
2019-01-26T15:27:14.965Z,-2.18
2019-01-26T15:29:46.211Z,-2.23
2019-01-26T15:32:17.455Z,-2.20
2019-01-26T15:34:48.637Z,-2.26
2019-01-26T15:37:22.577Z,-2.29
2019-01-26T15:39:53.726Z,-2.22
2019-01-26T15:42:24.818Z,-2.22
2019-01-26T15:44:56.253Z,-2.16
2019-01-26T15:47:27.531Z,-2.13
2019-01-26T15:49:58.497Z,-2.10
2019-01-26T15:52:29.655Z,-2.10
2019-01-26T15:55:00.802Z,-2.11
2019-01-26T15:57:32.701Z,-2.09
2019-01-26T16:00:04.592Z,-2.06
2019-01-26T16:02:36.807Z,-2.04
2019-01-26T16:05:09.629Z,-2.09
2019-01-26T16:07:42.489Z,-2.12
2019-01-26T16:10:17.493Z,-2.07
2019-01-26T16:12:48.833Z,-2.07
2019-01-26T16:15:22.097Z,-2.06
2019-01-26T16:17:53.416Z,-2.09
2019-01-26T16:20:25.898Z,-2.10
2019-01-26T16:22:58.013Z,-2.14
2019-01-26T16:25:29.414Z,-2.12
2019-01-26T16:28:00.466Z,-2.07
2019-01-26T16:30:32.932Z,-2.06
2019-01-26T16:33:04.811Z,-2.06
2019-01-26T16:35:37.338Z,-2.05
2019-01-26T16:38:09.336Z,-1.99
2019-01-26T16:40:40.478Z,-2.05
2019-01-26T16:43:11.938Z,-2.09
2019-01-26T16:45:42.921Z,-2.13
2019-01-26T16:48:15.843Z,-2.07
2019-01-26T16:50:47.309Z,-2.08
2019-01-26T16:53:18.655Z,-2.02
2019-01-26T16:55:49.832Z,-1.98
2019-01-26T16:58:20.945Z,-1.97
2019-01-26T17:00:56.199Z,-1.94
2019-01-26T17:03:28.479Z,-1.95
2019-01-26T17:05:59.667Z,-1.95
2019-01-26T17:08:30.785Z,-1.88
2019-01-26T17:11:03.200Z,-1.85
2019-01-26T17:13:34.564Z,-1.92
2019-01-26T17:16:05.644Z,-1.91
2019-01-26T17:18:37.020Z,-1.87
2019-01-26T17:21:09.872Z,-1.89
2019-01-26T17:23:41.845Z,-1.82
2019-01-26T17:26:15.870Z,-1.82
2019-01-26T17:28:49.190Z,-1.78
2019-01-26T17:31:20.726Z,-1.80
2019-01-26T17:33:51.737Z,-1.79
2019-01-26T17:36:23.463Z,-1.77
2019-01-26T17:38:55.364Z,-1.78
2019-01-26T17:41:26.973Z,-1.77
2019-01-26T17:43:58.847Z,-1.74
2019-01-26T17:46:32.160Z,-1.74
2019-01-26T17:49:03.166Z,-1.70
2019-01-26T17:51:35.104Z,-1.69
2019-01-26T17:54:06.546Z,-1.66
2019-01-26T17:56:37.684Z,-1.67
2019-01-26T17:59:08.714Z,-1.64
2019-01-26T18:01:40.177Z,-1.60
2019-01-26T18:04:12.256Z,-1.63
2019-01-26T18:06:44.003Z,-1.65
2019-01-26T18:09:15.117Z,-1.61
2019-01-26T18:11:47.674Z,-1.63
2019-01-26T18:14:19.244Z,-1.63
2019-01-26T18:16:50.456Z,-1.65
2019-01-26T18:19:22.090Z,-1.62
2019-01-26T18:21:53.295Z,-1.62
2019-01-26T18:24:25.875Z,-1.58
2019-01-26T18:26:57.399Z,-1.56
2019-01-26T18:29:28.621Z,-1.55
2019-01-26T18:31:59.762Z,-1.51
2019-01-26T18:34:34.641Z,-1.50
2019-01-26T18:37:05.780Z,-1.50
2019-01-26T18:39:38.444Z,-1.49
2019-01-26T18:42:10.779Z,-1.47
2019-01-26T18:44:42.924Z,-1.49
2019-01-26T18:47:14.147Z,-1.52
2019-01-26T18:49:45.306Z,-1.54
2019-01-26T18:52:17.577Z,-1.55
2019-01-26T18:54:48.711Z,-1.53
2019-01-26T18:57:21.750Z,-1.54
2019-01-26T18:59:54.169Z,-1.58
2019-01-26T19:02:25.478Z,-1.56
2019-01-26T19:05:01.895Z,-1.56
2019-01-26T19:07:33.984Z,-1.55
2019-01-26T19:10:06.657Z,-1.59
2019-01-26T19:12:38.696Z,-1.55
2019-01-26T19:15:13.903Z,-1.55
2019-01-26T19:17:44.969Z,-1.53
2019-01-26T19:20:16.660Z,-1.49
2019-01-26T19:22:48.247Z,-1.49
2019-01-26T19:25:19.582Z,-1.50
2019-01-26T19:27:50.771Z,-1.47
2019-01-26T19:30:22.176Z,-1.48
2019-01-26T19:32:54.379Z,-1.47
2019-01-26T19:35:25.832Z,-1.44
2019-01-26T19:37:57.432Z,-1.46
2019-01-26T19:40:28.434Z,-1.44
2019-01-26T19:42:59.613Z,-1.45
2019-01-26T19:45:31.039Z,-1.40
2019-01-26T19:48:02.512Z,-1.43
2019-01-26T19:50:33.736Z,-1.52
2019-01-26T19:53:05.414Z,-1.47
2019-01-26T19:55:36.562Z,-1.45
2019-01-26T19:58:08.143Z,-1.44
2019-01-26T20:00:39.208Z,-1.43
2019-01-26T20:03:10.236Z,-1.43
2019-01-26T20:05:47.883Z,-1.39
2019-01-26T20:08:15.312Z,-1.44
2019-01-26T20:10:47.458Z,-1.38
2019-01-26T20:13:18.738Z,-1.34
2019-01-26T20:15:49.824Z,-1.33
2019-01-26T20:18:22.595Z,-1.27
2019-01-26T20:20:53.821Z,-1.30
2019-01-26T20:23:25.095Z,-1.21
2019-01-26T20:25:56.265Z,-1.19
2019-01-26T20:28:28.352Z,-1.13
2019-01-26T20:30:59.578Z,-1.19
2019-01-26T20:33:30.967Z,-1.24
2019-01-26T20:36:03.727Z,-1.23
2019-01-26T20:38:35.445Z,-1.23
2019-01-26T20:41:07.419Z,-1.16
2019-01-26T20:43:38.733Z,-1.20
2019-01-26T20:46:09.862Z,-1.18
2019-01-26T20:48:41.042Z,-1.13
2019-01-26T20:51:12.161Z,-1.17
2019-01-26T20:53:44.396Z,-1.12
2019-01-26T20:56:15.580Z,-1.08
2019-01-26T20:58:47.625Z,-1.16
2019-01-26T21:01:18.747Z,-1.17
2019-01-26T21:03:49.787Z,-1.16
2019-01-26T21:06:20.979Z,-1.07
2019-01-26T21:08:52.883Z,-1.09
2019-01-26T21:11:24.157Z,-1.08
2019-01-26T21:13:56.618Z,-1.07
2019-01-26T21:16:27.916Z,-1.07
2019-01-26T21:18:58.959Z,-1.05
2019-01-26T21:21:31.866Z,-1.05
2019-01-26T21:24:03.687Z,-1.05
2019-01-26T21:26:35.087Z,-1.06
2019-01-26T21:29:07.674Z,-1.04
2019-01-26T21:31:39.228Z,-0.97
2019-01-26T21:34:10.493Z,-0.97
2019-01-26T21:36:41.762Z,-0.96
2019-01-26T21:39:14.070Z,-0.90
2019-01-26T21:41:45.403Z,-0.90
2019-01-26T21:44:16.632Z,-0.94
2019-01-26T21:46:47.936Z,-0.90
2019-01-26T21:49:19.587Z,-0.90
2019-01-26T21:51:51.618Z,-0.85
2019-01-26T21:54:24.954Z,-0.87
2019-01-26T21:56:58.667Z,-0.82
2019-01-26T21:59:29.985Z,-0.80
2019-01-26T22:02:01.071Z,-0.83
2019-01-26T22:04:32.678Z,-0.77
2019-01-26T22:07:03.857Z,-0.79
2019-01-26T22:09:34.845Z,-0.79
2019-01-26T22:12:05.979Z,-0.80
2019-01-26T22:14:37.315Z,-0.77
2019-01-26T22:17:09.024Z,-0.71
2019-01-26T22:19:40.102Z,-0.63
2019-01-26T22:22:12.513Z,-0.66
2019-01-26T22:24:43.791Z,-0.65
2019-01-26T22:27:15.710Z,-0.65
2019-01-26T22:29:49.737Z,-0.67
2019-01-26T22:32:21.216Z,-0.70
2019-01-26T22:34:52.772Z,-0.65
2019-01-26T22:37:23.793Z,-0.60
2019-01-26T22:39:55.062Z,-0.57
2019-01-26T22:42:26.025Z,-0.52
2019-01-26T22:44:57.350Z,-0.54
2019-01-26T22:47:28.333Z,-0.57
2019-01-26T22:49:59.607Z,-0.55
2019-01-26T22:52:30.818Z,-0.60
2019-01-26T22:55:02.404Z,-0.58
2019-01-26T22:57:35.547Z,-0.57
2019-01-26T23:00:12.695Z,-0.57
2019-01-26T23:02:46.057Z,-0.60
2019-01-26T23:05:38.634Z,-0.54
2019-01-26T23:08:16.389Z,-0.50
2019-01-26T23:11:25.111Z,-0.53
2019-01-26T23:14:36.477Z,-0.53
2019-01-26T23:17:52.514Z,-0.51
2019-01-26T23:20:42.508Z,-0.47
2019-01-26T23:23:41.933Z,-0.49
2019-01-26T23:26:59.893Z,-0.50
2019-01-26T23:29:57.836Z,-0.44
2019-01-26T23:32:29.658Z,-0.46
2019-01-26T23:35:01.098Z,-0.42
2019-01-26T23:37:32.378Z,-0.36
2019-01-26T23:40:05.234Z,-0.40
2019-01-26T23:42:38.603Z,-0.37
2019-01-26T23:45:10.012Z,-0.33
2019-01-26T23:47:42.349Z,-0.30
2019-01-26T23:50:13.634Z,-0.31
2019-01-26T23:52:44.966Z,-0.24
2019-01-26T23:55:16.351Z,-0.18
2019-01-26T23:57:47.487Z,-0.17
